Terminal Aerodrome Forecast
Issued by NWS

Home | Current Version | Previous Version | Text Only | Print | Product List | Glossary On
Versions: 1 2 3 4 5 6 7 8 9 10 11 12 13 14 15 16 17 18 19 20 21 22 23 24 25 26 27 28 29 30 31
000
FTUS41 KOKX 281931 AAA
TAFGON
TAF AMD
KGON 281931Z 2820/2918 16008KT P6SM OVC150
     FM282100 17008KT P6SM -SHRA BKN060 OVC100
     FM290500 07007KT P6SM -RA OVC060
     FM290900 08008KT P6SM OVC060
     FM291600 10010KT P6SM BKN060=

USA.gov is the U.S. government's official web portal to all federal, state and local government web resources and services.